Ei varoituksia voimassa -

Lähimmät METAR asemat

 

EFPO - Pori (mil/Civ), Finland
Distance from station: PLU 42km
Päivitetty: 20/09/2019 17:50
Heikkoa sadetta, Enimmäkseen pilvistä
Heikkoa sadetta, Enimmäkseen pilvistä
 Wind from L
Tuuli: L 11 km/h
Lämpötila: 9°C
Wind Chill: 7°C
Kastepiste: 3°C
Kosteus: 66%
Ilmanpaine: 1014 hPa
Yhteenveto: Heikkoa sadetta
Clouds: Enimmäkseen pilvistä
Visibility: 10 km
Cloud details: Few Clouds 884 m
Enimmäkseen pilvistä 1189 m
Enimmäkseen pilvistä 1402 m
2019/09/20 14:50 EFPO 201450Z AUTO 26006KT 9999 -RA FEW029/// BKN039/// BKN046/// 09/03 Q1014
EFTU - Turku/Abo, Finland
Distance from station: E 68km
Päivitetty: 20/09/2019 17:50
Heikkoa sadetta, Showers, Thunderstorm
Heikkoa sadetta, Showers, Thunderstorm
 Wind from L
Tuuli: L 6 km/h
Lämpötila: 8°C
Kastepiste: 6°C
Kosteus: 87%
Ilmanpaine: 1015 hPa
Yhteenveto: Heikkoa sadetta, Showers
Clouds: Thunderstorm
Visibility: 10 km
Cloud details: Vaihtelevaa 1036 m
2019/09/20 14:50 EFTU 201450Z AUTO 28003KT 9999 -SHRA OVC034 //////CB 08/06 Q1015
 
EFTP - Tampere/Pirkkala, Finland
Distance from station: IKO 84km
Päivitetty: 20/09/2019 17:50
Selkeätä
Selkeätä
 Wind from ELO
Tuuli: ELO 7 km/h
Lämpötila: 8°C
Wind Chill: 7°C
Kastepiste: 3°C
Kosteus: 71%
Ilmanpaine: 1014 hPa
Yhteenveto: Selkeätä
Visibility: greater than 10 km
2019/09/20 14:50 EFTP 201450Z AUTO 21004KT CAVOK 08/03 Q1014